Time;durP1;ratioP1;P1;durP2;ratioP2;P2;SDS_P1;SDS_P2;PMS_P1;PMS_P2;Temp;Humidity;BMP_temperature;BMP_pressure;BME280_temperature;BME280_humidity;BME280_pressure;Samples;Min_cycle;Max_cycle;Signal;HPM_P1;HPM_P2
2023/03/26 00:01:35;;;;;;;;;0.00;0.00;;;;;12.34;100.00;100285.22;5085125;27;46140;-78
2023/03/26 00:04:02;;;;;;;;;0.00;0.00;;;;;12.13;100.00;100239.81;5093221;27;45446;-78
2023/03/26 00:06:33;;;;;;;;;0.67;0.33;;;;;12.29;100.00;100278.72;5088095;27;45477;-78
2023/03/26 00:08:59;;;;;;;;;0.00;0.00;;;;;12.18;100.00;100259.22;5091037;27;45623;-78
2023/03/26 00:11:26;;;;;;;;;1.67;1.00;;;;;12.19;100.00;100260.88;5101384;27;45997;-75
2023/03/26 00:13:55;;;;;;;;;0.67;0.67;;;;;12.17;100.00;100262.16;5091596;27;45436;-78
2023/03/26 00:16:21;;;;;;;;;2.00;0.33;;;;;12.14;100.00;100259.88;5072705;27;45731;-75
2023/03/26 00:18:47;;;;;;;;;1.00;1.00;;;;;11.99;100.00;100235.56;5084610;27;45723;-80
2023/03/26 00:21:16;;;;;;;;;0.00;0.00;;;;;11.99;100.00;100255.66;5068918;27;48491;-79
2023/03/26 00:23:42;;;;;;;;;1.00;0.00;;;;;11.97;100.00;100243.19;5094103;27;45696;-78
2023/03/26 00:26:11;;;;;;;;;2.00;0.00;;;;;11.84;100.00;100236.78;5070485;28;45964;-81
2023/03/26 00:28:39;;;;;;;;;2.33;1.00;;;;;11.68;100.00;100220.91;5072782;27;46200;-81
2023/03/26 00:31:06;;;;;;;;;1.00;1.00;;;;;11.75;100.00;100221.69;5072591;27;47042;-79
2023/03/26 00:33:32;;;;;;;;;1.33;0.00;;;;;11.72;100.00;100213.91;5084350;27;45932;-80
2023/03/26 00:35:59;;;;;;;;;1.33;0.67;;;;;11.73;100.00;100217.47;5092655;27;45740;-80
2023/03/26 00:38:27;;;;;;;;;0.67;0.33;;;;;11.58;100.00;100195.88;5092403;27;45663;-79
2023/03/26 00:40:53;;;;;;;;;4.00;0.67;;;;;11.61;100.00;100198.16;5090077;27;46367;-77
2023/03/26 00:43:21;;;;;;;;;0.67;0.00;;;;;11.57;100.00;100189.56;5089660;27;45840;-76
2023/03/26 00:45:54;;;;;;;;;0.00;0.00;;;;;11.51;100.00;100190.44;5089226;27;45595;-76
2023/03/26 00:48:21;;;;;;;;;0.33;0.00;;;;;11.33;100.00;100161.09;5072789;27;46599;-77
2023/03/26 00:50:48;;;;;;;;;0.00;0.00;;;;;11.35;100.00;100153.47;5093046;27;46379;-77
2023/03/26 00:53:15;;;;;;;;;1.67;0.33;;;;;11.36;100.00;100160.66;5092564;27;46562;-78
2023/03/26 00:55:43;;;;;;;;;2.33;1.00;;;;;11.25;100.00;100139.44;5092866;27;45790;-79
2023/03/26 00:58:09;;;;;;;;;0.00;0.00;;;;;11.25;100.00;100142.19;5078601;27;45628;-75
2023/03/26 01:00:38;;;;;;;;;3.67;2.00;;;;;10.91;100.00;100106.03;5080010;27;46100;-79
2023/03/26 01:03:05;;;;;;;;;0.33;0.33;;;;;10.99;100.00;100124.09;5093021;27;45822;-82
2023/03/26 01:05:33;;;;;;;;;1.33;1.00;;;;;10.90;100.00;100135.38;5092039;27;45460;-81
2023/03/26 01:08:25;;;;;;;;;0.00;0.00;;;;;10.78;100.00;100116.06;5099443;27;45363;-83
2023/03/26 01:10:52;;;;;;;;;1.00;1.00;;;;;10.57;100.00;100095.38;5096705;27;46296;-81
2023/03/26 01:13:22;;;;;;;;;0.67;0.00;;;;;10.34;100.00;100067.75;5101370;27;45479;-82
2023/03/26 01:15:49;;;;;;;;;1.00;1.00;;;;;10.24;100.00;100081.94;5101225;27;45805;-81
2023/03/26 01:18:18;;;;;;;;;1.00;1.00;;;;;10.24;100.00;100081.94;5085996;27;46558;-79
2023/03/26 01:20:48;;;;;;;;;1.33;0.67;;;;;10.23;100.00;100088.47;5099280;27;45839;-78
2023/03/26 01:23:20;;;;;;;;;1.33;1.00;;;;;10.13;100.00;100055.25;5099708;27;46009;-78
2023/03/26 01:25:59;;;;;;;;;1.00;1.00;;;;;9.96;100.00;100044.00;5078151;27;45578;-79
2023/03/26 01:28:31;;;;;;;;;1.33;1.33;;;;;9.94;100.00;100040.63;5100707;27;45877;-78
2023/03/26 01:31:16;;;;;;;;;0.00;0.00;;;;;9.99;100.00;100063.56;5100810;27;46191;-79
2023/03/26 01:33:54;;;;;;;;;4.00;2.00;;;;;9.97;100.00;100049.28;5089942;27;45700;-77
2023/03/26 01:36:36;;;;;;;;;0.33;0.33;;;;;9.98;100.00;100031.75;5089415;27;45532;-78
2023/03/26 01:39:24;;;;;;;;;2.00;2.00;;;;;9.73;100.00;99987.94;5088340;27;46575;-80
2023/03/26 01:42:14;;;;;;;;;2.00;2.00;;;;;9.88;100.00;100031.44;5098222;27;48118;-79
2023/03/26 01:44:43;;;;;;;;;2.00;1.00;;;;;9.85;100.00;100013.53;5093954;27;45823;-78
2023/03/26 01:47:11;;;;;;;;;3.00;1.00;;;;;9.74;100.00;99977.81;5106306;27;45852;-77
2023/03/26 01:49:37;;;;;;;;;3.33;1.33;;;;;9.84;100.00;99978.16;5085600;27;45528;-81
2023/03/26 01:52:11;;;;;;;;;2.00;2.00;;;;;9.57;100.00;99931.00;5082180;27;46650;-79
2023/03/26 01:54:37;;;;;;;;;1.67;0.33;;;;;9.71;100.00;99941.63;5089126;27;45335;-80
2023/03/26 01:57:36;;;;;;;;;1.00;0.00;;;;;9.76;100.00;99932.72;5085994;27;45841;-77
2023/03/26 02:00:23;;;;;;;;;3.33;2.00;;;;;9.82;100.00;99936.44;5095313;27;45768;-80
2023/03/26 02:03:04;;;;;;;;;2.00;0.33;;;;;9.87;100.00;99936.63;5082345;27;45631;-80
2023/03/26 02:05:42;;;;;;;;;3.00;1.00;;;;;9.89;100.00;99915.31;5093762;27;45854;-81
2023/03/26 02:08:36;;;;;;;;;1.00;1.00;;;;;9.94;100.00;99904.53;5093843;27;45355;-82
2023/03/26 02:11:10;;;;;;;;;1.67;1.67;;;;;9.84;100.00;99891.34;5081101;27;46098;-82
2023/03/26 02:13:37;;;;;;;;;2.00;2.00;;;;;9.71;100.00;99878.66;5077465;27;47026;-82
2023/03/26 02:16:06;;;;;;;;;2.00;2.00;;;;;9.56;100.00;99872.66;5092272;27;45848;-80
2023/03/26 02:18:35;;;;;;;;;2.00;1.00;;;;;9.54;100.00;99875.63;5098810;27;45781;-82
2023/03/26 02:21:24;;;;;;;;;1.00;1.00;;;;;9.51;100.00;99867.03;5093744;27;45494;-82
2023/03/26 02:24:01;;;;;;;;;3.00;1.33;;;;;9.43;100.00;99843.53;5066673;27;46829;-83
2023/03/26 02:26:28;;;;;;;;;2.00;2.00;;;;;9.42;100.00;99841.00;5092217;27;45773;-81
2023/03/26 02:28:54;;;;;;;;;1.00;1.00;;;;;9.45;100.00;99843.28;5090389;27;45845;-81
2023/03/26 02:31:20;;;;;;;;;0.33;0.33;;;;;9.38;100.00;99812.41;5097908;27;45938;-82
2023/03/26 02:33:48;;;;;;;;;2.00;1.00;;;;;9.44;100.00;99816.97;5076113;27;46023;-82
2023/03/26 02:36:16;;;;;;;;;2.00;1.00;;;;;9.38;100.00;99798.72;5077119;27;45802;-81
2023/03/26 02:38:42;;;;;;;;;1.00;1.00;;;;;9.53;100.00;99808.25;5087453;27;45519;-83
2023/03/26 02:41:07;;;;;;;;;2.00;1.00;;;;;9.55;100.00;99810.78;5109144;27;46353;-82
2023/03/26 02:43:33;;;;;;;;;3.00;1.00;;;;;9.55;100.00;99794.34;5090522;27;45958;-81
2023/03/26 02:46:01;;;;;;;;;3.50;1.50;;;;;9.56;100.00;99801.47;5097330;27;45796;-84
2023/03/26 02:48:27;;;;;;;;;3.67;2.33;;;;;9.41;100.00;99770.91;5089651;27;45507;-82
2023/03/26 02:50:59;;;;;;;;;1.67;1.33;;;;;9.41;100.00;99738.88;5087017;27;45491;-81
2023/03/26 02:53:28;;;;;;;;;2.00;2.00;;;;;9.45;100.00;99729.19;5085149;27;47435;-84
2023/03/26 02:55:54;;;;;;;;;0.33;0.33;;;;;9.65;100.00;99739.91;5096651;27;45406;-82
2023/03/26 02:58:20;;;;;;;;;2.00;1.00;;;;;9.45;100.00;99695.50;5087302;27;45821;-82
2023/03/26 03:00:49;;;;;;;;;3.00;2.00;;;;;9.62;100.00;99709.41;5105793;27;45452;-82
2023/03/26 03:03:16;;;;;;;;;2.00;1.67;;;;;9.74;100.00;99714.97;5108159;27;45869;-81
2023/03/26 03:05:42;;;;;;;;;1.00;1.00;;;;;9.70;100.00;99693.53;5115160;27;45767;-82
2023/03/26 03:08:20;;;;;;;;;1.33;1.00;;;;;9.80;100.00;99687.50;5089978;27;45575;-83
2023/03/26 03:11:07;;;;;;;;;3.33;1.33;;;;;9.88;100.00;99691.84;5111980;27;45673;-82
2023/03/26 03:13:33;;;;;;;;;3.00;2.00;;;;;9.80;100.00;99651.06;5087350;27;45563;-81
2023/03/26 03:15:58;;;;;;;;;3.00;0.33;;;;;10.04;100.00;99676.66;5090822;27;45323;-81
2023/03/26 03:18:24;;;;;;;;;3.00;1.00;;;;;10.11;100.00;99654.66;5095213;27;45796;-79
2023/03/26 03:20:50;;;;;;;;;1.00;1.00;;;;;10.14;100.00;99651.44;5100709;27;45851;-78
2023/03/26 03:23:16;;;;;;;;;1.33;1.00;;;;;10.29;100.00;99662.81;5092873;27;46131;-78
2023/03/26 03:25:42;;;;;;;;;0.33;0.33;;;;;10.36;100.00;99666.31;5092498;27;45828;-79
2023/03/26 03:28:07;;;;;;;;;2.33;1.00;;;;;10.50;100.00;99657.91;5066042;28;45500;-79
2023/03/26 03:30:34;;;;;;;;;0.33;0.33;;;;;10.57;100.00;99664.09;5086162;27;45837;-76
2023/03/26 03:33:01;;;;;;;;;1.00;1.00;;;;;10.64;100.00;99647.53;5112270;27;46440;-79
2023/03/26 03:35:28;;;;;;;;;0.67;0.67;;;;;10.74;100.00;99653.28;5109998;27;45355;-78
2023/03/26 03:37:54;;;;;;;;;8.00;6.67;;;;;10.84;100.00;99645.28;5112219;27;46271;-78
2023/03/26 03:40:20;;;;;;;;;2.33;1.67;;;;;10.93;100.00;99640.28;5089164;27;45731;-79
2023/03/26 03:42:46;;;;;;;;;1.67;0.67;;;;;10.99;100.00;99638.47;5075331;27;48166;-79
2023/03/26 03:45:12;;;;;;;;;0.67;0.67;;;;;11.01;100.00;99628.13;5108281;27;45357;-81
2023/03/26 03:47:38;;;;;;;;;1.00;1.00;;;;;11.06;100.00;99633.72;5108354;27;45500;-80
2023/03/26 03:50:04;;;;;;;;;1.00;0.00;;;;;11.12;100.00;99628.13;5102037;27;46358;-80
2023/03/26 03:52:30;;;;;;;;;0.00;0.00;;;;;11.18;100.00;99630.97;5112145;27;45222;-79
2023/03/26 03:55:02;;;;;;;;;1.00;1.00;;;;;11.14;100.00;99614.16;5089892;27;45459;-78
2023/03/26 03:57:28;;;;;;;;;0.00;0.00;;;;;11.10;100.00;99624.75;5102665;27;45814;-79
2023/03/26 03:59:57;;;;;;;;;3.00;0.67;;;;;11.07;100.00;99606.03;5081599;27;45742;-81
2023/03/26 04:02:29;;;;;;;;;0.00;0.00;;;;;11.04;100.00;99636.69;5092568;27;46113;-80
2023/03/26 04:04:56;;;;;;;;;3.67;0.33;;;;;10.98;100.00;99643.13;5064559;27;45738;-79
2023/03/26 04:07:23;;;;;;;;;1.33;1.33;;;;;10.98;100.00;99645.88;5090320;27;45500;-82
2023/03/26 04:09:49;;;;;;;;;0.00;0.00;;;;;11.02;100.00;99644.34;5081373;27;45316;-80
2023/03/26 04:12:15;;;;;;;;;0.00;0.00;;;;;11.05;100.00;99648.53;5084093;27;46011;-81
2023/03/26 04:14:41;;;;;;;;;0.00;0.00;;;;;11.05;100.00;99638.38;5094464;27;45452;-79
2023/03/26 04:17:06;;;;;;;;;1.00;0.00;;;;;10.99;100.00;99641.22;5093311;27;45403;-79
2023/03/26 04:19:32;;;;;;;;;0.00;0.00;;;;;11.12;100.00;99644.59;5089493;27;45839;-78
2023/03/26 04:22:03;;;;;;;;;0.00;0.00;;;;;11.08;100.00;99670.81;5088485;27;45823;-79
2023/03/26 04:24:29;;;;;;;;;0.00;0.00;;;;;11.12;100.00;99672.03;5093202;27;45675;-78
2023/03/26 04:26:57;;;;;;;;;0.00;0.00;;;;;11.17;100.00;99675.94;5068513;27;45598;-79
2023/03/26 04:29:26;;;;;;;;;1.00;0.00;;;;;11.20;100.00;99687.28;5096351;27;45508;-79
2023/03/26 04:31:57;;;;;;;;;1.00;0.00;;;;;11.18;100.00;99685.84;5079507;27;46841;-80
2023/03/26 04:34:23;;;;;;;;;1.00;0.00;;;;;11.11;100.00;99692.28;5094370;27;45659;-79
2023/03/26 04:36:53;;;;;;;;;0.00;0.00;;;;;11.15;100.00;99689.06;5093754;27;45456;-79
2023/03/26 04:39:20;;;;;;;;;0.00;0.00;;;;;11.15;100.00;99694.56;5075408;28;45752;-82
2023/03/26 04:41:47;;;;;;;;;1.00;0.00;;;;;11.07;100.00;99690.25;5076920;27;47042;-81
2023/03/26 04:44:16;;;;;;;;;0.00;0.00;;;;;11.05;100.00;99692.44;5089410;27;45514;-78
2023/03/26 04:46:42;;;;;;;;;0.00;0.00;;;;;11.07;100.00;99696.56;5097425;27;45665;-80
2023/03/26 04:49:08;;;;;;;;;0.00;0.00;;;;;11.07;100.00;99695.75;5099999;27;45756;-80
2023/03/26 04:51:40;;;;;;;;;0.00;0.00;;;;;11.17;100.00;99712.47;5081262;27;46999;-80
2023/03/26 04:54:07;;;;;;;;;1.00;0.00;;;;;11.19;100.00;99712.22;5103696;27;45659;-80
2023/03/26 04:56:37;;;;;;;;;0.00;0.00;;;;;11.18;100.00;99716.03;5099358;27;45705;-82
2023/03/26 04:59:03;;;;;;;;;0.00;0.00;;;;;11.19;100.00;99701.25;5087743;27;45686;-80
2023/03/26 05:01:29;;;;;;;;;0.67;0.00;;;;;11.02;100.00;99671.78;5088958;27;48239;-79
2023/03/26 05:03:58;;;;;;;;;1.00;0.00;;;;;11.23;100.00;99699.69;5090804;27;45419;-80
2023/03/26 05:06:27;;;;;;;;;1.00;0.00;;;;;11.21;100.00;99715.56;5077380;27;45348;-79
2023/03/26 05:08:53;;;;;;;;;0.00;0.00;;;;;11.22;100.00;99717.22;5072688;28;46869;-81
2023/03/26 05:11:19;;;;;;;;;1.00;1.00;;;;;11.14;100.00;99701.97;5089802;27;46428;-79
2023/03/26 05:13:45;;;;;;;;;0.00;0.00;;;;;11.09;100.00;99712.81;5081615;27;45598;-80
2023/03/26 05:16:12;;;;;;;;;0.00;0.00;;;;;11.00;100.00;99715.06;5083213;27;45737;-79
2023/03/26 05:18:38;;;;;;;;;1.00;0.00;;;;;10.94;100.00;99716.00;5097382;27;45405;-81
2023/03/26 05:21:04;;;;;;;;;1.00;0.00;;;;;10.68;100.00;99681.66;5078731;27;46244;-82
2023/03/26 05:23:29;;;;;;;;;0.00;0.00;;;;;10.76;100.00;99727.91;5094517;27;45437;-82
2023/03/26 05:25:55;;;;;;;;;1.00;0.00;;;;;10.68;100.00;99731.81;5101553;27;45773;-82
2023/03/26 05:28:23;;;;;;;;;0.00;0.00;;;;;10.64;100.00;99718.81;5080663;27;46267;-82
2023/03/26 05:30:51;;;;;;;;;0.00;0.00;;;;;10.48;100.00;99704.72;5087196;27;46142;-81
2023/03/26 05:33:18;;;;;;;;;0.00;0.00;;;;;10.44;100.00;99713.66;5103113;27;45469;-82
2023/03/26 05:35:43;;;;;;;;;0.00;0.00;;;;;10.47;100.00;99724.16;5079245;27;45515;-79
2023/03/26 05:38:09;;;;;;;;;1.00;0.00;;;;;10.43;100.00;99723.75;5103327;27;45585;-84
2023/03/26 05:40:35;;;;;;;;;0.00;0.00;;;;;10.36;100.00;99744.94;5084827;27;48038;-83
2023/03/26 05:43:01;;;;;;;;;0.00;0.00;;;;;10.30;100.00;99735.75;5099820;27;45552;-83
2023/03/26 05:45:26;;;;;;;;;0.00;0.00;;;;;10.29;100.00;99739.53;5095801;27;45925;-82
2023/03/26 05:47:53;;;;;;;;;2.00;0.00;;;;;10.26;100.00;99742.75;5091769;27;46038;-81
2023/03/26 05:50:19;;;;;;;;;0.00;0.00;;;;;10.11;100.00;99706.72;5098510;27;45706;-83
2023/03/26 05:52:45;;;;;;;;;1.00;1.00;;;;;10.23;100.00;99719.38;5075938;27;45675;-83
2023/03/26 05:55:12;;;;;;;;;2.00;0.00;;;;;10.26;100.00;99740.00;5073257;27;45584;-84
2023/03/26 05:57:38;;;;;;;;;0.00;0.00;;;;;10.35;100.00;99738.63;5089993;27;45903;-82
2023/03/26 06:00:05;;;;;;;;;0.00;0.00;;;;;10.47;100.00;99711.28;5075300;27;48319;-83
2023/03/26 06:02:30;;;;;;;;;1.67;0.33;;;;;10.54;100.00;99742.16;5092291;27;45590;-83
2023/03/26 06:04:56;;;;;;;;;1.00;0.00;;;;;10.78;100.00;99743.06;5073477;28;45438;-79
2023/03/26 06:07:22;;;;;;;;;1.00;1.00;;;;;10.87;100.00;99713.38;5088683;27;45452;-81
2023/03/26 06:09:48;;;;;;;;;3.00;0.00;;;;;11.06;100.00;99711.38;5095454;27;45548;-81
2023/03/26 06:12:14;;;;;;;;;0.33;0.33;;;;;11.23;100.00;99738.94;5087440;27;45613;-77
2023/03/26 06:14:41;;;;;;;;;0.00;0.00;;;;;11.31;100.00;99737.75;5090437;27;45438;-77
2023/03/26 06:17:07;;;;;;;;;1.67;0.00;;;;;11.22;100.00;99733.69;5087242;27;45899;-76
2023/03/26 06:19:33;;;;;;;;;0.00;0.00;;;;;11.16;100.00;99727.25;5069325;27;48274;-80
2023/03/26 06:21:58;;;;;;;;;1.33;0.33;;;;;11.61;100.00;99745.03;5094393;27;45944;-77
2023/03/26 06:24:24;;;;;;;;;1.67;0.00;;;;;12.21;100.00;99746.56;5094809;27;45880;-81
2023/03/26 06:26:50;;;;;;;;;0.00;0.00;;;;;12.67;100.00;99741.13;5086924;27;45563;-78
2023/03/26 06:29:15;;;;;;;;;0.00;0.00;;;;;12.76;100.00;99756.16;5078159;27;45595;-79
2023/03/26 06:31:41;;;;;;;;;1.00;0.00;;;;;12.68;100.00;99757.38;5089826;27;45793;-79
2023/03/26 06:34:07;;;;;;;;;1.00;0.00;;;;;13.06;100.00;99749.50;5084631;27;45877;-80
2023/03/26 06:36:32;;;;;;;;;0.00;0.00;;;;;13.71;100.00;99761.81;5070222;27;46096;-79
2023/03/26 06:38:58;;;;;;;;;0.67;0.00;;;;;14.38;100.00;99759.06;5093211;27;45410;-79
2023/03/26 06:41:23;;;;;;;;;2.00;0.00;;;;;14.19;100.00;99751.16;5091554;27;45610;-79
2023/03/26 06:43:49;;;;;;;;;0.00;0.00;;;;;13.97;100.00;99758.56;5084256;27;45842;-80
2023/03/26 06:46:15;;;;;;;;;0.00;0.00;;;;;13.72;100.00;99773.66;5103349;27;45552;-79
2023/03/26 06:48:41;;;;;;;;;0.67;0.33;;;;;13.42;100.00;99750.91;5072714;27;47695;-79
2023/03/26 06:51:10;;;;;;;;;1.00;0.67;;;;;13.36;100.00;99771.22;5090287;27;45439;-80
2023/03/26 06:53:35;;;;;;;;;0.00;0.00;;;;;13.23;100.00;99766.88;5090217;27;45592;-77
2023/03/26 06:56:02;;;;;;;;;7.00;3.67;;;;;13.15;100.00;99756.25;5077628;27;45979;-78
2023/03/26 06:58:28;;;;;;;;;4.00;3.00;;;;;13.13;100.00;99779.59;5072639;27;47454;-80
2023/03/26 07:00:55;;;;;;;;;12.00;10.00;;;;;13.03;100.00;99783.03;5058712;27;45774;-80
2023/03/26 07:03:21;;;;;;;;;6.67;6.67;;;;;12.92;100.00;99765.50;5071104;27;45860;-79
2023/03/26 07:05:47;;;;;;;;;4.33;4.33;;;;;12.95;100.00;99776.03;5106088;27;45390;-80
2023/03/26 07:08:13;;;;;;;;;5.00;2.67;;;;;12.85;100.00;99784.09;5087767;27;45809;-79
2023/03/26 07:10:39;;;;;;;;;4.67;4.67;;;;;12.73;100.00;99778.66;5058319;27;45819;-81
2023/03/26 07:13:06;;;;;;;;;12.33;7.00;;;;;12.35;100.00;99727.91;5090353;27;45770;-80
2023/03/26 07:15:32;;;;;;;;;7.67;6.00;;;;;12.68;100.00;99789.56;5069919;27;47641;-81
2023/03/26 07:17:58;;;;;;;;;2.67;1.67;;;;;12.57;100.00;99793.19;5099472;27;45913;-79
2023/03/26 07:20:23;;;;;;;;;4.33;1.67;;;;;12.62;100.00;99804.28;5085992;27;46213;-78
2023/03/26 07:22:52;;;;;;;;;8.00;5.33;;;;;12.62;100.00;99807.03;5080179;27;45575;-79
2023/03/26 07:25:21;;;;;;;;;9.33;7.33;;;;;12.61;100.00;99814.47;5073461;27;47197;-80
2023/03/26 07:28:11;;;;;;;;;12.00;9.00;;;;;12.56;100.00;99811.63;5100594;27;46223;-79
2023/03/26 07:31:20;;;;;;;;;16.33;12.67;;;;;12.61;100.00;99824.66;5093332;27;45429;-79
2023/03/26 07:34:00;;;;;;;;;9.33;6.33;;;;;12.56;100.00;99827.28;5096600;27;45824;-80
2023/03/26 07:36:52;;;;;;;;;6.00;4.67;;;;;12.50;100.00;99829.94;5073987;27;46793;-82
2023/03/26 07:39:23;;;;;;;;;7.67;6.33;;;;;12.23;100.00;99790.31;5100829;27;45194;-79
2023/03/26 07:41:50;;;;;;;;;5.67;4.67;;;;;12.59;100.00;99826.78;5088609;27;45778;-80
2023/03/26 07:44:47;;;;;;;;;4.00;3.67;;;;;12.59;100.00;99843.28;5068644;27;45158;-80
2023/03/26 07:47:24;;;;;;;;;9.00;8.00;;;;;12.64;100.00;99818.66;5096946;27;45816;-81
2023/03/26 07:49:52;;;;;;;;;2.33;1.67;;;;;12.78;100.00;99836.50;5086588;27;45787;-79
2023/03/26 07:52:18;;;;;;;;;6.33;5.00;;;;;13.06;100.00;99832.06;5069550;27;45829;-78
2023/03/26 07:54:44;;;;;;;;;5.00;3.33;;;;;13.19;100.00;99809.75;5061716;27;45621;-80
2023/03/26 07:57:31;;;;;;;;;6.00;5.33;;;;;13.59;100.00;99838.22;5070658;27;46741;-80
2023/03/26 08:00:21;;;;;;;;;4.00;1.67;;;;;13.72;100.00;99826.03;5080259;27;47328;-82
2023/03/26 08:02:53;;;;;;;;;4.67;2.33;;;;;13.93;100.00;99836.25;5074754;27;45433;-79
2023/03/26 08:05:32;;;;;;;;;2.33;1.33;;;;;14.26;100.00;99853.78;5066918;27;45946;-79
2023/03/26 08:08:12;;;;;;;;;3.00;1.00;;;;;14.42;100.00;99829.19;5081661;27;45844;-80
2023/03/26 08:11:13;;;;;;;;;1.67;0.67;;;;;14.74;100.00;99853.31;5081436;27;45749;-79
2023/03/26 08:13:57;;;;;;;;;2.67;1.00;;;;;14.95;100.00;99846.91;5061292;27;45496;-81
2023/03/26 08:16:47;;;;;;;;;7.67;3.00;;;;;15.03;100.00;99833.72;5066901;27;45712;-82
2023/03/26 08:19:58;;;;;;;;;3.67;3.00;;;;;15.16;100.00;99830.56;5055707;27;45895;-82
2023/03/26 08:22:35;;;;;;;;;3.67;1.33;;;;;15.17;100.00;99829.47;5031065;27;46250;-80
2023/03/26 08:25:26;;;;;;;;;2.33;2.33;;;;;15.39;100.00;99831.31;5065415;27;45813;-82
2023/03/26 08:28:10;;;;;;;;;3.67;3.67;;;;;15.52;100.00;99848.28;5094626;27;45800;-81
2023/03/26 08:30:45;;;;;;;;;4.00;2.67;;;;;15.31;100.00;99822.41;5065181;27;45966;-86
2023/03/26 08:33:17;;;;;;;;;2.00;2.00;;;;;15.30;100.00;99840.09;5067471;27;47068;-80
2023/03/26 08:35:45;;;;;;;;;0.67;0.67;;;;;15.21;100.00;99830.63;5068672;27;47618;-81
2023/03/26 08:38:15;;;;;;;;;0.00;0.00;;;;;15.36;100.00;99855.59;5065375;28;45515;-82
2023/03/26 08:41:02;;;;;;;;;1.33;1.33;;;;;15.31;100.00;99839.00;5073409;27;45763;-83
2023/03/26 08:43:59;;;;;;;;;7.00;6.67;;;;;15.39;100.00;99856.16;5075932;27;45493;-81
2023/03/26 08:46:45;;;;;;;;;16.00;12.00;;;;;15.49;100.00;99840.53;5062253;27;45583;-81
2023/03/26 08:49:11;;;;;;;;;62.75;48.75;;;;;15.54;100.00;99837.78;5081391;27;45596;-82
2023/03/26 08:52:08;;;;;;;;;27.33;20.33;;;;;15.82;100.00;99844.13;5067998;27;45712;-81
2023/03/26 08:55:03;;;;;;;;;21.33;16.00;;;;;16.01;100.00;99852.78;5098799;27;45436;-81
2023/03/26 08:57:46;;;;;;;;;18.33;14.00;;;;;16.12;100.00;99852.84;5067644;28;45393;-82
2023/03/26 09:00:33;;;;;;;;;17.67;14.00;;;;;16.10;100.00;99858.66;5074324;28;45456;-81
2023/03/26 09:03:38;;;;;;;;;11.00;11.00;;;;;16.04;100.00;99868.03;5071266;28;45891;-82
2023/03/26 09:06:30;;;;;;;;;13.67;12.00;;;;;16.02;100.00;99843.41;4994501;28;46753;-85
2023/03/26 09:09:37;;;;;;;;;3.67;3.00;;;;;16.14;100.00;99867.28;5090080;27;45826;-81
2023/03/26 09:12:31;;;;;;;;;5.00;4.33;;;;;16.24;100.00;99878.38;5048732;28;46256;-81
2023/03/26 09:15:26;;;;;;;;;4.00;2.00;;;;;16.08;100.00;99880.22;5087091;27;45743;-81
2023/03/26 09:18:30;;;;;;;;;2.00;2.00;;;;;15.91;100.00;99885.91;5069221;27;47352;-81
2023/03/26 09:21:10;;;;;;;;;0.00;0.00;;;;;15.94;100.00;99888.13;5067502;27;45779;-82
2023/03/26 09:23:58;;;;;;;;;1.00;0.00;;;;;15.91;100.00;99890.63;5089390;27;45877;-83
2023/03/26 09:26:31;;;;;;;;;0.33;0.33;;;;;15.82;100.00;99855.19;5087732;27;45853;-80
2023/03/26 09:29:29;;;;;;;;;2.00;0.67;;;;;16.17;100.00;99886.09;5083025;27;47312;-82
2023/03/26 09:32:11;;;;;;;;;0.00;0.00;;;;;16.15;100.00;99897.44;5078676;27;45956;-75
2023/03/26 09:34:42;;;;;;;;;6.00;2.00;;;;;16.13;100.00;99909.84;5086478;27;46571;-76
2023/03/26 09:37:19;;;;;;;;;0.00;0.00;;;;;16.05;100.00;99903.72;5093517;27;46858;-79
2023/03/26 09:39:52;;;;;;;;;0.00;0.00;;;;;15.88;100.00;99865.16;5070263;27;46941;-79
2023/03/26 09:42:45;;;;;;;;;0.00;0.00;;;;;16.11;100.00;99879.69;5085591;27;46670;-82
2023/03/26 09:45:16;;;;;;;;;3.67;1.00;;;;;16.24;100.00;99895.81;5077458;27;45651;-85
2023/03/26 09:48:08;;;;;;;;;0.00;0.00;;;;;16.24;100.00;99901.34;5084756;27;45975;-86
2023/03/26 09:51:01;;;;;;;;;1.00;1.00;;;;;16.04;100.00;99893.75;5081565;27;45465;-87
2023/03/26 09:53:45;;;;;;;;;0.00;0.00;;;;;15.81;100.00;99899.69;5085185;27;45534;-84
2023/03/26 09:56:46;;;;;;;;;0.00;0.00;;;;;15.80;100.00;99918.19;5078715;28;44941;-89
2023/03/26 09:59:45;;;;;;;;;1.00;0.00;;;;;15.64;100.00;99921.88;5082266;27;45868;-85
2023/03/26 10:02:43;;;;;;;;;1.00;0.00;;;;;15.39;100.00;99912.28;5080818;27;46004;-83
2023/03/26 10:05:49;;;;;;;;;0.00;0.00;;;;;15.37;100.00;99931.03;5079865;27;46403;-86
2023/03/26 10:08:43;;;;;;;;;0.00;0.00;;;;;15.23;100.00;99922.31;5073320;27;45763;-84
2023/03/26 10:11:36;;;;;;;;;1.00;0.67;;;;;15.19;100.00;99934.97;5078050;27;45738;-85
2023/03/26 10:14:37;;;;;;;;;0.00;0.00;;;;;14.79;100.00;99886.47;5088076;27;47189;-85
2023/03/26 10:17:59;;;;;;;;;0.00;0.00;;;;;14.96;100.00;99914.84;5084964;27;45502;-86
2023/03/26 10:21:33;;;;;;;;;3.00;1.00;;;;;15.09;100.00;99940.38;5093566;27;45612;-83
2023/03/26 10:24:25;;;;;;;;;1.67;1.67;;;;;15.14;100.00;99941.28;5057151;28;45652;-84
2023/03/26 10:27:20;;;;;;;;;1.00;1.00;;;;;15.45;100.00;99954.59;5087790;27;45453;-85
2023/03/26 10:30:33;;;;;;;;;1.00;1.00;;;;;16.01;100.00;99946.81;5092366;27;45413;-87
2023/03/26 10:33:51;;;;;;;;;0.00;0.00;;;;;16.57;100.00;99949.16;5088206;27;45527;-83
2023/03/26 10:36:28;;;;;;;;;0.33;0.00;;;;;17.22;100.00;99948.06;5014990;27;46117;-87
2023/03/26 10:39:35;;;;;;;;;1.00;0.00;;;;;17.58;100.00;99921.22;5100836;27;45523;-87
2023/03/26 10:42:12;;;;;;;;;2.00;0.00;;;;;18.47;100.00;99951.44;5087166;27;45879;-86
2023/03/26 10:45:15;;;;;;;;;0.00;0.00;;;;;18.47;100.00;99951.44;5089986;27;45767;-86
2023/03/26 10:48:00;;;;;;;;;0.00;0.00;;;;;17.75;100.00;99928.44;5079420;27;45771;-86
2023/03/26 10:50:44;;;;;;;;;0.00;0.00;;;;;17.44;100.00;99929.25;5075966;27;48002;-86
2023/03/26 10:53:19;;;;;;;;;2.00;0.00;;;;;17.63;100.00;99962.84;5081557;27;45486;-86
2023/03/26 10:55:53;;;;;;;;;0.00;0.00;;;;;18.25;100.00;99960.09;5091323;27;45791;-85
2023/03/26 10:58:26;;;;;;;;;0.00;0.00;;;;;18.97;99.55;99953.53;5093494;27;45693;-84
2023/03/26 11:01:01;;;;;;;;;2.00;2.00;;;;;19.31;97.00;99941.66;5074964;27;46818;-81
2023/03/26 11:03:45;;;;;;;;;13.67;8.67;;;;;19.32;96.16;99943.34;5084756;27;45374;-86
2023/03/26 11:06:55;;;;;;;;;1.00;0.33;;;;;19.22;94.34;99949.78;5083783;27;45082;-83
2023/03/26 11:10:00;;;;;;;;;0.00;0.00;;;;;18.64;93.92;99944.75;5080018;27;45790;-83
2023/03/26 11:12:56;;;;;;;;;1.00;1.00;;;;;18.42;95.22;99920.91;5059240;27;45530;-84
2023/03/26 11:15:44;;;;;;;;;1.00;0.00;;;;;18.46;94.57;99966.44;5076742;27;45908;-86
2023/03/26 11:18:32;;;;;;;;;0.00;0.00;;;;;18.56;94.75;99965.56;5081785;27;45750;-87
2023/03/26 11:21:16;;;;;;;;;1.67;1.67;;;;;18.56;94.27;99948.06;5078799;27;47006;-81
2023/03/26 11:23:59;;;;;;;;;0.00;0.00;;;;;18.24;94.17;99932.63;5098986;27;45831;-84
2023/03/26 11:26:58;;;;;;;;;1.00;1.00;;;;;17.76;91.89;99914.28;5090817;27;45715;-84
2023/03/26 11:29:55;;;;;;;;;0.00;0.00;;;;;17.60;93.88;99948.66;5065197;27;45740;-84
2023/03/26 11:32:49;;;;;;;;;0.00;0.00;;;;;17.01;95.50;99925.00;5075800;27;45704;-83
2023/03/26 11:39:58;;;;;;;;;0.00;0.00;;;;;17.03;97.10;99950.47;5050001;27;45973;-84
2023/03/26 11:46:45;;;;;;;;;0.00;0.00;;;;;16.46;96.43;99899.53;4913624;28;45537;-84
2023/03/26 11:50:05;;;;;;;;;0.00;0.00;;;;;16.57;95.50;99904.00;4948687;28;47123;-83
2023/03/26 11:52:34;;;;;;;;;1.33;0.00;;;;;16.86;94.48;99947.91;5016683;28;45775;-84
2023/03/26 11:55:03;;;;;;;;;0.00;0.00;;;;;16.51;94.81;99899.53;5037645;28;45695;-82
2023/03/26 11:57:34;;;;;;;;;0.00;0.00;;;;;16.70;94.88;99945.03;5081777;27;45406;-83
2023/03/26 12:00:19;;;;;;;;;1.00;1.00;;;;;16.92;95.57;99933.00;5088086;27;45496;-83
2023/03/26 12:02:49;;;;;;;;;0.00;0.00;;;;;16.98;93.06;99931.91;5069227;27;46009;-83
2023/03/26 12:05:33;;;;;;;;;0.67;0.00;;;;;17.16;92.58;99944.44;5081219;27;45210;-85
2023/03/26 12:08:22;;;;;;;;;0.00;0.00;;;;;16.94;91.62;99905.84;5090774;27;45769;-84
2023/03/26 12:11:05;;;;;;;;;0.00;0.00;;;;;16.90;91.77;99922.19;5093924;27;45788;-83